Time;durP1;ratioP1;P1;durP2;ratioP2;P2;SDS_P1;SDS_P2;PMS_P1;PMS_P2;Temp;Humidity;BMP_temperature;BMP_pressure;BME280_temperature;BME280_humidity;BME280_pressure;Samples;Min_cycle;Max_cycle;Signal;HPM_P1;HPM_P2
2023/05/24 00:01:27;;;;;;;28.70;7.75;;;7.40;99.90;;;;;;4991289;28;20042;-83
2023/05/24 00:03:57;;;;;;;25.25;8.07;;;7.40;99.90;;;;;;4982754;28;20109;-83
2023/05/24 00:06:27;;;;;;;28.90;7.45;;;7.50;99.90;;;;;;4976694;28;20042;-83
2023/05/24 00:08:53;;;;;;;26.90;8.10;;;7.50;99.90;;;;;;4979026;28;20041;-83
2023/05/24 00:11:19;;;;;;;29.77;8.65;;;7.50;99.90;;;;;;4963147;28;20048;-83
2023/05/24 00:13:45;;;;;;;30.23;7.70;;;7.50;99.90;;;;;;4959400;28;20061;-83
2023/05/24 00:16:11;;;;;;;31.60;8.27;;;7.50;99.90;;;;;;4971043;28;20103;-83
2023/05/24 00:18:39;;;;;;;27.50;8.05;;;7.50;99.90;;;;;;4959955;28;20049;-83
2023/05/24 00:21:09;;;;;;;24.25;7.30;;;7.60;99.90;;;;;;4962949;28;20065;-83
2023/05/24 00:23:38;;;;;;;35.08;8.15;;;7.60;99.90;;;;;;4992411;28;20450;-83
2023/05/24 00:26:07;;;;;;;31.75;8.73;;;7.60;99.90;;;;;;4975116;28;20044;-83
2023/05/24 00:28:36;;;;;;;32.13;7.30;;;7.60;99.90;;;;;;4962379;28;20387;-83
2023/05/24 00:31:02;;;;;;;26.23;7.65;;;7.60;99.90;;;;;;4958758;28;20045;-83
2023/05/24 00:33:28;;;;;;;33.65;8.05;;;7.60;99.90;;;;;;4994942;28;20099;-83
2023/05/24 00:35:57;;;;;;;28.75;7.03;;;7.70;99.90;;;;;;4994711;28;20043;-83
2023/05/24 00:38:24;;;;;;;28.63;7.90;;;7.70;99.90;;;;;;4994409;28;20034;-83
2023/05/24 00:40:55;;;;;;;29.73;7.35;;;7.70;99.90;;;;;;4982703;28;20411;-83
2023/05/24 00:43:21;;;;;;;29.98;7.60;;;7.70;99.90;;;;;;4982612;28;20501;-83
2023/05/24 00:45:46;;;;;;;28.55;7.90;;;7.70;99.90;;;;;;4957568;28;20626;-83
2023/05/24 00:48:13;;;;;;;29.30;7.28;;;7.80;99.90;;;;;;4993565;28;20125;-83
2023/05/24 00:50:39;;;;;;;25.92;7.35;;;7.80;99.90;;;;;;4998266;28;20172;-83
2023/05/24 00:53:06;;;;;;;28.63;7.35;;;7.70;99.90;;;;;;4973967;28;20117;-83
2023/05/24 00:55:35;;;;;;;28.13;7.20;;;7.70;99.90;;;;;;4981922;28;21087;-83
2023/05/24 00:58:01;;;;;;;29.30;7.70;;;7.80;99.90;;;;;;4981830;28;20597;-83
2023/05/24 01:00:28;;;;;;;28.80;7.55;;;7.80;99.90;;;;;;4978726;28;20117;-83
2023/05/24 01:02:54;;;;;;;25.25;7.22;;;7.80;99.90;;;;;;4999202;28;20219;-82
2023/05/24 01:05:22;;;;;;;23.45;7.15;;;7.80;99.90;;;;;;4966938;28;20069;-83
2023/05/24 01:08:31;;;;;;;32.78;7.60;;;7.80;99.90;;;;;;4996726;28;20081;-83
2023/05/24 01:11:05;;;;;;;30.52;7.55;;;7.80;99.90;;;;;;5000254;28;20107;-82
2023/05/24 01:13:43;;;;;;;28.35;7.70;;;7.70;99.90;;;;;;4980050;28;20513;-83
2023/05/24 01:16:45;;;;;;;31.83;7.70;;;7.70;99.90;;;;;;4965100;28;20405;-83
2023/05/24 01:19:35;;;;;;;35.40;8.10;;;7.70;99.90;;;;;;4962491;28;20050;-83
2023/05/24 01:22:23;;;;;;;28.20;7.90;;;7.60;99.90;;;;;;4979057;28;20045;-83
2023/05/24 01:25:20;;;;;;;31.42;7.53;;;7.60;99.90;;;;;;4980293;28;20108;-83
2023/05/24 01:27:47;;;;;;;27.17;7.72;;;7.60;99.90;;;;;;4999220;28;20038;-83
2023/05/24 01:30:13;;;;;;;27.33;6.75;;;7.50;99.90;;;;;;4980961;28;20050;-82
2023/05/24 01:32:39;;;;;;;28.35;8.27;;;7.60;99.90;;;;;;4980917;28;20046;-82
2023/05/24 01:35:05;;;;;;;32.78;8.55;;;7.50;99.90;;;;;;4962457;28;20057;-82
2023/05/24 01:37:31;;;;;;;27.55;7.75;;;7.50;99.90;;;;;;4978385;28;20055;-83
2023/05/24 01:39:57;;;;;;;22.33;6.82;;;7.50;99.90;;;;;;4981469;28;20036;-82
2023/05/24 01:42:47;;;;;;;29.13;9.00;;;7.50;99.90;;;;;;4963638;28;20129;-83
2023/05/24 01:45:26;;;;;;;27.25;7.68;;;7.50;99.90;;;;;;4994849;28;20042;-82
2023/05/24 01:48:17;;;;;;;26.33;7.63;;;7.50;99.90;;;;;;4983104;28;20053;-83
2023/05/24 01:50:56;;;;;;;27.00;7.60;;;7.50;99.90;;;;;;4964652;28;20033;-83
2023/05/24 01:53:25;;;;;;;28.55;7.50;;;7.40;99.90;;;;;;4979023;28;20029;-83
2023/05/24 01:55:55;;;;;;;28.25;7.75;;;7.40;99.90;;;;;;4996228;28;20057;-83
2023/05/24 01:58:22;;;;;;;30.52;7.55;;;7.40;99.90;;;;;;4976991;28;20545;-83
2023/05/24 02:00:48;;;;;;;30.63;7.88;;;7.40;99.90;;;;;;4964885;28;20048;-84
2023/05/24 02:03:15;;;;;;;28.80;7.43;;;7.40;99.90;;;;;;4995756;28;20122;-84
2023/05/24 02:05:43;;;;;;;29.45;8.23;;;7.40;99.90;;;;;;4978722;28;20044;-83
2023/05/24 02:08:09;;;;;;;32.17;7.70;;;7.40;99.90;;;;;;4978274;28;20155;-83
2023/05/24 02:10:38;;;;;;;24.50;7.93;;;7.40;99.90;;;;;;4980895;28;20064;-83
2023/05/24 02:13:07;;;;;;;33.90;8.02;;;7.40;99.90;;;;;;4975669;28;20120;-83
2023/05/24 02:15:37;;;;;;;34.38;8.15;;;7.40;99.90;;;;;;4975240;28;20514;-83
2023/05/24 02:18:03;;;;;;;27.75;7.63;;;7.40;99.90;;;;;;4979308;28;20038;-83
2023/05/24 02:20:35;;;;;;;29.70;8.13;;;7.40;99.90;;;;;;4998222;28;20048;-83
2023/05/24 02:23:04;;;;;;;29.05;8.55;;;7.40;99.90;;;;;;4962575;28;20040;-83
2023/05/24 02:25:30;;;;;;;29.58;8.00;;;7.50;99.90;;;;;;4978732;28;20081;-83
2023/05/24 02:27:57;;;;;;;29.17;7.72;;;7.40;99.90;;;;;;4996744;28;20045;-83
2023/05/24 02:30:23;;;;;;;29.42;8.63;;;7.50;99.90;;;;;;4957774;28;20085;-83
2023/05/24 02:32:49;;;;;;;37.42;8.70;;;7.60;99.90;;;;;;4990085;28;20081;-83
2023/05/24 02:35:15;;;;;;;29.23;8.63;;;7.60;99.90;;;;;;4976393;28;20489;-83
2023/05/24 02:37:40;;;;;;;29.73;8.18;;;7.60;99.90;;;;;;4960471;28;20045;-83
2023/05/24 02:40:07;;;;;;;27.88;8.70;;;7.70;99.90;;;;;;4996540;28;20521;-83
2023/05/24 02:42:32;;;;;;;27.55;6.65;;;7.70;99.90;;;;;;4996472;28;20092;-83
2023/05/24 02:44:58;;;;;;;26.33;7.22;;;7.80;99.90;;;;;;4963368;28;20041;-83
2023/05/24 02:47:25;;;;;;;27.33;7.22;;;7.80;99.90;;;;;;4972931;28;20088;-83
2023/05/24 02:49:55;;;;;;;26.77;6.90;;;7.90;99.90;;;;;;4990121;28;20042;-83
2023/05/24 02:52:22;;;;;;;28.48;7.00;;;7.90;99.90;;;;;;4961504;28;20137;-83
2023/05/24 02:54:48;;;;;;;24.67;7.03;;;7.90;99.90;;;;;;4955364;28;20274;-83
2023/05/24 02:57:15;;;;;;;24.98;6.55;;;7.90;99.90;;;;;;4979148;28;20065;-82
2023/05/24 02:59:41;;;;;;;25.98;6.50;;;7.90;99.90;;;;;;4972083;28;20034;-83
2023/05/24 03:02:07;;;;;;;27.17;7.03;;;8.00;99.90;;;;;;4971744;28;20044;-83
2023/05/24 03:04:32;;;;;;;25.38;6.50;;;8.00;99.90;;;;;;4979295;28;20041;-83
2023/05/24 03:06:58;;;;;;;28.75;6.57;;;8.00;99.90;;;;;;4972838;28;20066;-83
2023/05/24 03:09:25;;;;;;;23.67;6.03;;;8.00;99.90;;;;;;4974575;28;20042;-84
2023/05/24 03:11:53;;;;;;;25.23;6.07;;;8.00;99.90;;;;;;4958221;28;20137;-83
2023/05/24 03:14:21;;;;;;;21.52;5.95;;;8.00;99.90;;;;;;4973578;28;20037;-83
2023/05/24 03:16:47;;;;;;;23.35;7.03;;;8.00;99.90;;;;;;4994573;28;20397;-83
2023/05/24 03:19:13;;;;;;;19.05;5.40;;;8.10;99.90;;;;;;4974578;28;20130;-83
2023/05/24 03:21:39;;;;;;;24.58;6.00;;;8.10;99.90;;;;;;4978658;28;20049;-83
2023/05/24 03:24:05;;;;;;;27.50;6.43;;;8.10;99.90;;;;;;4994672;28;20048;-83
2023/05/24 03:26:33;;;;;;;24.98;6.05;;;8.10;99.90;;;;;;4964288;28;20491;-83
2023/05/24 03:28:59;;;;;;;26.80;6.50;;;8.10;99.90;;;;;;4964238;28;20112;-83
2023/05/24 03:31:25;;;;;;;25.20;5.97;;;8.20;99.90;;;;;;4980038;28;20500;-84
2023/05/24 03:33:51;;;;;;;18.02;5.78;;;8.10;99.90;;;;;;4963417;28;20464;-83
2023/05/24 03:36:17;;;;;;;21.88;6.30;;;8.10;99.90;;;;;;4975566;28;20045;-84
2023/05/24 03:38:43;;;;;;;20.48;5.38;;;8.10;99.90;;;;;;4975803;28;20104;-84
2023/05/24 03:41:09;;;;;;;21.73;6.35;;;8.10;99.90;;;;;;4979917;28;20490;-83
2023/05/24 03:43:35;;;;;;;27.17;6.70;;;8.20;99.90;;;;;;4995023;28;20120;-83
2023/05/24 03:46:01;;;;;;;20.38;6.30;;;8.20;99.90;;;;;;4976370;28;20637;-83
2023/05/24 03:48:26;;;;;;;29.52;6.50;;;8.20;99.90;;;;;;4963057;28;20037;-83
2023/05/24 03:50:52;;;;;;;22.23;5.90;;;8.30;99.90;;;;;;4978550;28;20218;-83
2023/05/24 03:53:19;;;;;;;18.17;5.78;;;8.30;99.90;;;;;;4993210;28;20041;-83
2023/05/24 03:55:44;;;;;;;27.40;6.38;;;8.40;99.90;;;;;;4963928;28;20097;-83
2023/05/24 03:58:16;;;;;;;22.67;5.38;;;8.30;99.90;;;;;;4994723;28;20117;-83
2023/05/24 04:00:42;;;;;;;18.08;5.93;;;8.40;99.90;;;;;;4993177;28;20057;-83
2023/05/24 04:03:08;;;;;;;18.75;6.18;;;8.40;99.90;;;;;;4978972;28;20045;-83
2023/05/24 04:05:34;;;;;;;20.73;5.95;;;8.40;99.90;;;;;;4976644;28;20057;-82
2023/05/24 04:08:00;;;;;;;24.92;6.35;;;8.50;99.90;;;;;;4992654;28;20048;-83
2023/05/24 04:10:26;;;;;;;19.42;6.03;;;8.50;99.90;;;;;;4975215;28;20112;-83
2023/05/24 04:12:55;;;;;;;20.17;5.90;;;8.50;99.90;;;;;;4954250;28;20058;-82
2023/05/24 04:15:22;;;;;;;28.13;6.25;;;8.60;99.90;;;;;;4978495;28;20071;-83
2023/05/24 04:17:53;;;;;;;21.17;5.65;;;8.60;99.90;;;;;;4947468;28;20126;-82
2023/05/24 04:20:25;;;;;;;23.25;6.10;;;8.60;99.90;;;;;;4944058;28;20142;-83
2023/05/24 04:22:51;;;;;;;25.42;6.22;;;8.70;99.90;;;;;;4960728;28;20042;-82
2023/05/24 04:25:17;;;;;;;23.05;5.47;;;8.80;99.90;;;;;;4977801;28;20049;-83
2023/05/24 04:27:43;;;;;;;15.43;4.97;;;8.80;99.90;;;;;;4982710;28;20042;-83
2023/05/24 04:30:10;;;;;;;22.23;5.53;;;8.90;99.90;;;;;;4972447;28;20127;-83
2023/05/24 04:32:36;;;;;;;27.25;5.85;;;8.90;99.90;;;;;;4956331;28;20054;-83
2023/05/24 04:35:06;;;;;;;23.25;5.93;;;8.90;99.90;;;;;;4976760;28;20486;-83
2023/05/24 04:37:32;;;;;;;18.48;5.20;;;9.00;99.90;;;;;;4980578;28;20178;-83
2023/05/24 04:40:04;;;;;;;22.10;5.47;;;9.00;99.90;;;;;;4945520;28;20053;-83
2023/05/24 04:42:32;;;;;;;15.38;4.78;;;9.00;99.90;;;;;;4962091;28;20461;-82
2023/05/24 04:44:58;;;;;;;23.38;6.15;;;9.10;99.90;;;;;;4979549;28;20421;-83
2023/05/24 04:47:24;;;;;;;25.42;6.00;;;9.10;99.90;;;;;;4958111;28;20053;-83
2023/05/24 04:49:50;;;;;;;17.92;5.55;;;9.20;99.90;;;;;;4963108;28;20054;-83
2023/05/24 04:52:17;;;;;;;23.77;5.38;;;9.20;99.90;;;;;;4973857;28;20069;-82
2023/05/24 04:54:42;;;;;;;22.92;5.03;;;9.30;99.90;;;;;;4971049;28;20125;-83
2023/05/24 04:57:08;;;;;;;16.90;5.18;;;9.30;99.90;;;;;;4946275;28;20096;-83
2023/05/24 04:59:34;;;;;;;19.42;4.93;;;9.30;99.90;;;;;;4958848;28;20042;-82
2023/05/24 05:02:00;;;;;;;21.33;4.93;;;9.40;99.90;;;;;;4942970;28;20035;-82
2023/05/24 05:04:25;;;;;;;17.15;5.32;;;9.50;99.90;;;;;;4976067;28;20053;-82
2023/05/24 05:06:51;;;;;;;18.85;4.60;;;9.50;99.90;;;;;;4978244;28;20038;-82
2023/05/24 05:09:17;;;;;;;16.70;5.10;;;9.60;99.90;;;;;;4943785;28;20039;-82
2023/05/24 05:11:48;;;;;;;22.33;5.32;;;9.70;99.90;;;;;;4963337;28;20157;-82
2023/05/24 05:14:14;;;;;;;18.95;5.05;;;9.70;99.90;;;;;;4980001;28;20437;-82
2023/05/24 05:16:41;;;;;;;19.08;5.40;;;9.80;99.90;;;;;;4982280;28;20053;-82
2023/05/24 05:19:07;;;;;;;22.48;5.32;;;9.80;99.90;;;;;;4998721;28;20038;-83
2023/05/24 05:21:33;;;;;;;20.58;5.03;;;9.80;99.90;;;;;;4978684;28;20305;-82
2023/05/24 05:24:02;;;;;;;21.85;4.80;;;9.90;99.90;;;;;;4981152;28;20687;-83
2023/05/24 05:26:28;;;;;;;17.25;4.18;;;9.90;99.90;;;;;;4998387;28;20058;-82
2023/05/24 05:28:55;;;;;;;19.30;5.32;;;10.00;99.90;;;;;;4994991;28;20312;-82
2023/05/24 05:31:24;;;;;;;19.70;5.05;;;10.00;99.90;;;;;;4964717;28;20077;-82
2023/05/24 05:33:50;;;;;;;15.70;4.80;;;10.00;99.90;;;;;;4996414;28;20860;-83
2023/05/24 05:36:16;;;;;;;22.73;4.88;;;10.10;99.90;;;;;;4981283;28;20042;-82
2023/05/24 05:38:42;;;;;;;19.88;4.65;;;10.20;99.90;;;;;;4961315;28;20065;-83
2023/05/24 05:41:08;;;;;;;15.95;4.60;;;10.40;99.90;;;;;;4975947;28;20062;-82
2023/05/24 05:43:33;;;;;;;21.65;4.68;;;10.40;99.90;;;;;;4973376;28;20368;-82
2023/05/24 05:46:02;;;;;;;16.23;4.47;;;10.50;99.90;;;;;;4961341;28;20041;-82
2023/05/24 05:48:27;;;;;;;19.50;4.80;;;10.60;99.90;;;;;;4998107;28;20124;-82
2023/05/24 05:50:53;;;;;;;14.13;4.13;;;10.70;99.90;;;;;;4964712;28;20203;-82
2023/05/24 05:53:18;;;;;;;19.58;5.03;;;10.70;99.90;;;;;;4972604;28;20503;-82
2023/05/24 05:55:44;;;;;;;18.65;4.63;;;10.80;99.90;;;;;;4981365;28;20034;-82
2023/05/24 05:58:12;;;;;;;19.30;4.13;;;10.90;99.90;;;;;;4997100;28;20472;-82
2023/05/24 06:00:39;;;;;;;18.42;4.85;;;10.90;99.90;;;;;;4973503;28;20071;-82
2023/05/24 06:03:05;;;;;;;20.08;4.72;;;10.90;99.90;;;;;;4995112;28;20033;-82
2023/05/24 06:05:30;;;;;;;16.40;4.32;;;10.90;99.90;;;;;;4976506;28;20491;-82
2023/05/24 06:07:58;;;;;;;17.45;4.60;;;10.90;99.90;;;;;;4992970;28;20136;-82
2023/05/24 06:10:24;;;;;;;25.45;5.07;;;10.90;99.90;;;;;;4980660;28;20034;-82
2023/05/24 06:12:53;;;;;;;19.75;4.40;;;11.00;99.90;;;;;;4974208;28;20418;-83
2023/05/24 06:15:21;;;;;;;16.60;4.75;;;11.30;99.90;;;;;;4967096;28;20055;-82
2023/05/24 06:17:48;;;;;;;16.98;3.80;;;11.40;99.90;;;;;;4969916;28;20091;-83
2023/05/24 06:20:15;;;;;;;19.58;5.10;;;11.60;99.90;;;;;;4978810;28;20038;-82
2023/05/24 06:22:44;;;;;;;18.90;4.82;;;11.70;99.90;;;;;;4954653;28;20117;-82
2023/05/24 06:25:13;;;;;;;23.48;5.30;;;11.80;99.90;;;;;;4976332;28;20429;-82
2023/05/24 06:27:39;;;;;;;17.55;4.80;;;12.10;99.90;;;;;;4976954;28;20058;-82
2023/05/24 06:30:05;;;;;;;16.45;4.57;;;12.10;99.90;;;;;;4968313;28;20053;-82
2023/05/24 06:32:31;;;;;;;13.85;4.47;;;12.30;99.90;;;;;;4971340;28;20487;-82
2023/05/24 06:34:57;;;;;;;19.25;4.55;;;12.40;99.90;;;;;;4975635;28;20121;-82
2023/05/24 06:37:24;;;;;;;18.77;5.18;;;12.10;99.90;;;;;;4971394;28;20042;-83
2023/05/24 06:39:50;;;;;;;17.13;4.40;;;11.80;99.90;;;;;;4989177;28;20136;-82
2023/05/24 06:42:16;;;;;;;19.45;4.45;;;11.70;99.90;;;;;;4972025;28;20045;-82
2023/05/24 06:44:41;;;;;;;12.43;3.92;;;11.80;99.90;;;;;;4969785;28;20053;-82
2023/05/24 06:47:08;;;;;;;13.65;3.80;;;11.80;99.90;;;;;;4986860;28;20086;-83
2023/05/24 06:49:33;;;;;;;12.20;4.03;;;12.00;99.90;;;;;;4973689;28;20095;-83
2023/05/24 06:51:59;;;;;;;10.52;3.38;;;11.90;99.90;;;;;;4975705;28;20573;-82
2023/05/24 06:54:27;;;;;;;15.77;3.70;;;12.20;99.90;;;;;;4975300;28;20480;-82
2023/05/24 06:56:54;;;;;;;16.88;3.83;;;12.10;99.90;;;;;;4976320;28;20042;-82
2023/05/24 06:59:22;;;;;;;10.27;3.50;;;12.10;99.90;;;;;;4972577;28;20038;-82
2023/05/24 07:01:50;;;;;;;15.60;4.18;;;12.30;99.90;;;;;;4975158;28;20042;-83
2023/05/24 07:04:16;;;;;;;14.05;3.85;;;12.40;99.90;;;;;;4977753;28;20038;-82
2023/05/24 07:06:44;;;;;;;12.52;3.67;;;12.20;99.90;;;;;;4972029;28;20108;-83
2023/05/24 07:09:10;;;;;;;11.52;3.15;;;12.50;99.90;;;;;;4976101;28;20038;-82
2023/05/24 07:11:36;;;;;;;11.80;3.78;;;12.50;99.90;;;;;;4978341;28;20049;-82
2023/05/24 07:14:02;;;;;;;8.70;3.20;;;12.30;99.90;;;;;;4981128;28;20152;-82
2023/05/24 07:16:28;;;;;;;12.20;3.42;;;12.20;99.90;;;;;;4963874;28;20038;-83
2023/05/24 07:18:54;;;;;;;15.93;3.92;;;12.00;99.90;;;;;;4964180;28;20088;-82
2023/05/24 07:21:20;;;;;;;11.55;3.55;;;12.20;99.90;;;;;;4997083;28;20058;-83
2023/05/24 07:23:50;;;;;;;15.85;3.67;;;12.10;99.90;;;;;;4975141;28;20504;-83
2023/05/24 07:26:16;;;;;;;15.88;4.40;;;12.00;99.90;;;;;;4994086;28;20050;-82
2023/05/24 07:28:42;;;;;;;12.05;3.88;;;12.00;99.90;;;;;;4960896;28;20042;-82
2023/05/24 07:31:08;;;;;;;13.07;3.72;;;12.10;99.90;;;;;;4958226;28;20248;-82
2023/05/24 07:33:36;;;;;;;17.27;4.20;;;12.10;99.90;;;;;;4958692;28;20426;-82
2023/05/24 07:36:03;;;;;;;13.73;3.83;;;11.90;99.90;;;;;;4993416;28;20046;-82
2023/05/24 07:38:30;;;;;;;17.88;4.32;;;12.10;99.90;;;;;;4954757;28;20210;-82
2023/05/24 07:41:02;;;;;;;17.05;4.00;;;12.10;99.90;;;;;;4998777;28;20320;-82
2023/05/24 07:43:28;;;;;;;11.82;4.05;;;12.20;99.90;;;;;;4988655;28;20046;-82
2023/05/24 07:45:54;;;;;;;15.07;4.20;;;12.30;99.90;;;;;;4991955;28;20042;-82
2023/05/24 07:48:20;;;;;;;16.60;4.25;;;12.40;99.90;;;;;;4976916;28;20045;-82
2023/05/24 07:50:48;;;;;;;13.55;3.72;;;12.30;99.90;;;;;;4996059;28;20045;-82
2023/05/24 07:53:15;;;;;;;17.35;4.72;;;12.50;99.90;;;;;;4994875;28;20297;-82
2023/05/24 07:55:41;;;;;;;21.08;4.18;;;12.90;99.90;;;;;;4995946;28;20489;-82
2023/05/24 07:58:06;;;;;;;16.30;3.83;;;13.20;99.90;;;;;;4974852;28;20041;-82
2023/05/24 08:00:32;;;;;;;14.80;4.35;;;13.10;99.90;;;;;;4977008;28;20038;-82
2023/05/24 08:02:59;;;;;;;15.30;3.92;;;13.00;99.90;;;;;;4974978;28;20466;-82
2023/05/24 08:05:25;;;;;;;15.50;4.47;;;13.10;99.90;;;;;;4975573;28;20049;-82
2023/05/24 08:07:52;;;;;;;16.42;3.97;;;13.80;99.90;;;;;;4971926;28;20042;-82
2023/05/24 08:10:21;;;;;;;15.27;3.78;;;13.70;99.90;;;;;;4975000;28;20447;-82
2023/05/24 08:12:48;;;;;;;14.48;3.50;;;14.00;99.90;;;;;;4961196;28;20238;-83
2023/05/24 08:15:15;;;;;;;14.73;4.18;;;14.30;99.90;;;;;;4973486;28;20046;-83
2023/05/24 08:17:40;;;;;;;12.70;3.53;;;14.20;99.90;;;;;;4973075;28;20038;-82
2023/05/24 08:20:08;;;;;;;14.90;3.80;;;14.00;99.90;;;;;;4978976;28;20101;-82
2023/05/24 08:22:34;;;;;;;15.38;3.95;;;14.00;99.90;;;;;;4960427;28;20115;-82
2023/05/24 08:25:00;;;;;;;12.57;3.40;;;14.50;99.90;;;;;;4974766;28;20034;-82
2023/05/24 08:27:29;;;;;;;10.25;3.47;;;14.00;99.90;;;;;;4972806;28;20064;-83
2023/05/24 08:29:54;;;;;;;11.30;3.65;;;14.10;99.90;;;;;;4994108;28;20500;-82
2023/05/24 08:32:20;;;;;;;10.95;3.42;;;13.90;99.90;;;;;;4979240;28;20107;-82
2023/05/24 08:34:48;;;;;;;9.32;3.28;;;13.50;99.90;;;;;;4978249;28;20547;-83
2023/05/24 08:37:18;;;;;;;13.52;3.75;;;13.80;99.90;;;;;;4956219;28;20354;-82
2023/05/24 08:39:44;;;;;;;7.82;2.83;;;13.70;99.90;;;;;;4982007;28;20034;-82
2023/05/24 08:42:12;;;;;;;10.13;3.50;;;13.80;99.90;;;;;;4963266;28;20034;-82
2023/05/24 08:44:52;;;;;;;7.78;2.85;;;13.80;99.90;;;;;;4976426;28;20382;-82
2023/05/24 08:47:22;;;;;;;6.65;2.70;;;13.80;99.90;;;;;;4989420;28;20042;-82
2023/05/24 08:49:49;;;;;;;8.93;2.83;;;14.00;99.90;;;;;;4995631;28;20038;-82
2023/05/24 08:52:15;;;;;;;8.60;3.10;;;13.60;95.60;;;;;;4989837;28;20486;-82
2023/05/24 08:54:42;;;;;;;8.98;2.60;;;13.50;99.90;;;;;;4978303;28;20126;-82
2023/05/24 08:57:10;;;;;;;8.60;2.83;;;13.70;71.10;;;;;;4965834;28;20485;-82
2023/05/24 08:59:40;;;;;;;9.23;2.90;;;14.30;99.90;;;;;;4983152;28;20531;-84
2023/05/24 09:02:14;;;;;;;10.98;3.35;;;13.70;55.30;;;;;;4996242;28;20074;-82
2023/05/24 09:04:43;;;;;;;6.70;2.95;;;13.90;99.90;;;;;;4965673;28;20190;-82
2023/05/24 09:07:15;;;;;;;10.35;2.90;;;13.60;99.90;;;;;;4972752;28;20050;-82
2023/05/24 09:09:45;;;;;;;8.25;3.50;;;13.60;99.90;;;;;;4975019;28;20152;-82
2023/05/24 09:12:14;;;;;;;9.90;2.83;;;13.70;99.90;;;;;;4979092;28;20154;-82
2023/05/24 09:14:46;;;;;;;9.32;4.13;;;14.20;99.90;;;;;;4979449;28;20046;-83
2023/05/24 09:17:14;;;;;;;7.63;3.00;;;14.40;99.90;;;;;;4974610;28;20065;-83
2023/05/24 09:19:45;;;;;;;10.02;2.92;;;14.50;99.90;;;;;;4964679;28;20084;-82
2023/05/24 09:22:18;;;;;;;10.50;2.92;;;14.30;96.30;;;;;;4962129;28;20189;-83
2023/05/24 09:24:47;;;;;;;9.38;3.50;;;14.20;99.90;;;;;;4999933;28;20189;-82
2023/05/24 09:27:15;;;;;;;9.23;2.90;;;14.00;99.90;;;;;;4975641;28;20050;-82
2023/05/24 09:29:48;;;;;;;9.55;3.30;;;13.70;2.80;;;;;;4979786;28;20440;-83
2023/05/24 09:32:18;;;;;;;10.82;3.65;;;13.90;99.90;;;;;;4980066;28;20041;-82
2023/05/24 09:34:48;;;;;;;14.05;3.63;;;14.10;99.90;;;;;;4999700;28;20176;-82
2023/05/24 09:37:26;;;;;;;10.85;3.13;;;14.40;99.90;;;;;;4974646;28;20333;-82
2023/05/24 09:39:52;;;;;;;8.43;3.25;;;14.30;99.90;;;;;;4963513;28;20034;-82
2023/05/24 09:42:25;;;;;;;11.52;3.53;;;14.70;99.90;;;;;;4980146;28;20069;-82
2023/05/24 09:45:00;;;;;;;10.82;3.97;;;14.30;99.90;;;;;;4990737;28;20157;-83
2023/05/24 09:47:30;;;;;;;13.25;3.80;;;14.20;99.90;;;;;;4993408;28;20498;-82
2023/05/24 09:49:56;;;;;;;9.20;3.10;;;14.30;99.90;;;;;;4998980;28;20041;-82
2023/05/24 09:52:22;;;;;;;12.88;4.15;;;14.30;99.90;;;;;;4996983;28;20034;-82
2023/05/24 09:54:47;;;;;;;7.68;3.15;;;14.00;99.90;;;;;;4967486;28;20250;-82
2023/05/24 09:57:21;;;;;;;9.73;3.65;;;14.30;99.90;;;;;;4996738;28;20155;-82
2023/05/24 09:59:48;;;;;;;11.17;3.43;;;14.20;99.90;;;;;;4974743;28;20045;-83
2023/05/24 10:02:17;;;;;;;18.30;3.85;;;14.10;99.90;;;;;;4994610;28;20344;-82
2023/05/24 10:04:43;;;;;;;12.07;3.88;;;13.60;99.90;;;;;;4997387;28;20099;-82
2023/05/24 10:07:11;;;;;;;11.20;3.65;;;13.50;99.90;;;;;;4972453;28;20054;-82
2023/05/24 10:09:37;;;;;;;10.38;3.33;;;13.90;99.90;;;;;;4978528;28;20099;-82
2023/05/24 10:12:05;;;;;;;10.95;3.38;;;14.20;99.90;;;;;;4977954;28;20132;-82
2023/05/24 10:14:34;;;;;;;9.20;3.60;;;14.20;99.90;;;;;;4967147;28;20060;-82
2023/05/24 10:17:02;;;;;;;7.13;3.08;;;13.90;99.90;;;;;;4959423;28;20073;-82
2023/05/24 10:19:28;;;;;;;10.10;3.15;;;13.90;99.90;;;;;;4989945;28;20050;-82
2023/05/24 10:21:56;;;;;;;7.03;2.75;;;13.80;99.90;;;;;;4993137;28;20449;-83
2023/05/24 10:24:29;;;;;;;8.73;3.00;;;14.00;99.90;;;;;;4962036;28;20501;-83
2023/05/24 10:26:57;;;;;;;8.07;3.17;;;14.20;99.90;;;;;;4964147;28;20461;-82
2023/05/24 10:29:40;;;;;;;10.90;3.28;;;14.90;99.90;;;;;;4989804;28;20041;-82
2023/05/24 10:32:07;;;;;;;7.68;2.50;;;15.50;99.90;;;;;;4956396;28;20038;-82
2023/05/24 10:34:35;;;;;;;10.57;2.85;;;15.20;99.90;;;;;;4994638;28;20053;-82
2023/05/24 10:37:01;;;;;;;7.85;2.75;;;14.80;99.90;;;;;;4977859;28;20409;-83
2023/05/24 10:39:27;;;;;;;10.00;3.05;;;14.50;99.90;;;;;;4995714;28;20046;-83
2023/05/24 10:41:55;;;;;;;6.75;3.20;;;14.80;99.90;;;;;;4960978;28;20038;-83
2023/05/24 10:44:27;;;;;;;6.95;2.80;;;14.40;99.90;;;;;;4978414;28;20441;-83
2023/05/24 10:47:13;;;;;;;10.30;3.42;;;14.40;99.90;;;;;;4965340;28;20044;-82
2023/05/24 10:49:47;;;;;;;10.75;3.63;;;14.70;99.90;;;;;;4978890;28;20422;-82
2023/05/24 10:52:12;;;;;;;14.20;3.60;;;14.20;99.90;;;;;;4959150;28;20054;-82
2023/05/24 10:54:39;;;;;;;8.13;3.20;;;13.90;99.90;;;;;;4976243;28;20507;-82
2023/05/24 10:57:06;;;;;;;9.80;3.30;;;14.00;99.90;;;;;;4975048;28;20104;-83
2023/05/24 10:59:36;;;;;;;11.02;3.45;;;13.80;99.90;;;;;;4975367;28;20046;-83
2023/05/24 11:02:14;;;;;;;11.80;3.60;;;13.50;99.90;;;;;;4963865;28;20561;-83
2023/05/24 11:04:50;;;;;;;15.70;4.00;;;13.40;99.90;;;;;;4996331;28;20061;-82
2023/05/24 11:07:18;;;;;;;10.60;3.42;;;13.30;99.90;;;;;;4959655;28;20042;-82
2023/05/24 11:09:56;;;;;;;11.68;3.95;;;13.30;99.90;;;;;;4978906;28;20179;-82
2023/05/24 11:12:29;;;;;;;12.57;4.53;;;13.40;99.90;;;;;;4974874;28;20062;-82
2023/05/24 11:14:55;;;;;;;13.43;4.40;;;13.70;99.90;;;;;;4980812;28;20038;-82
2023/05/24 11:17:22;;;;;;;12.60;3.88;;;13.90;99.90;;;;;;4966758;28;20034;-82
2023/05/24 11:19:53;;;;;;;12.00;3.92;;;14.10;99.90;;;;;;4981848;28;20034;-83
2023/05/24 11:22:26;;;;;;;11.32;3.42;;;13.80;99.90;;;;;;4975231;28;20041;-83
2023/05/24 11:24:52;;;;;;;10.25;3.13;;;14.10;99.90;;;;;;4964203;28;20037;-82
2023/05/24 11:27:18;;;;;;;10.90;3.20;;;14.40;99.90;;;;;;4979184;28;20508;-82
2023/05/24 11:29:46;;;;;;;11.57;4.00;;;14.60;99.90;;;;;;4979267;28;20030;-82
2023/05/24 11:32:16;;;;;;;12.95;3.65;;;14.50;99.90;;;;;;4990110;28;20036;-82
2023/05/24 11:34:46;;;;;;;8.60;3.65;;;14.50;99.90;;;;;;4995944;28;20034;-83
2023/05/24 11:37:11;;;;;;;12.65;3.78;;;14.80;52.50;;;;;;4994206;28;20038;-83
2023/05/24 11:39:48;;;;;;;9.73;3.53;;;14.50;1.00;;;;;;4979952;28;20038;-83
2023/05/24 11:42:14;;;;;;;11.60;3.60;;;14.00;99.90;;;;;;4996435;28;20041;-82
2023/05/24 11:44:40;;;;;;;10.00;3.28;;;13.80;99.90;;;;;;4974614;28;20129;-82
2023/05/24 11:47:07;;;;;;;11.00;3.55;;;13.60;99.90;;;;;;4995496;28;20069;-82
2023/05/24 11:49:33;;;;;;;12.15;4.00;;;13.50;99.90;;;;;;4976878;28;20142;-82
2023/05/24 11:52:00;;;;;;;13.73;3.42;;;13.60;99.90;;;;;;4956035;28;20525;-83
2023/05/24 11:54:27;;;;;;;9.82;3.35;;;13.60;99.90;;;;;;4977863;28;20041;-82
2023/05/24 11:56:53;;;;;;;13.00;3.25;;;13.90;99.90;;;;;;4995313;28;20042;-83
2023/05/24 11:59:27;;;;;;;11.35;3.28;;;13.90;99.90;;;;;;4962754;28;20044;-82
2023/05/24 12:02:08;;;;;;;8.57;3.00;;;14.00;99.90;;;;;;4979249;28;20656;-82
2023/05/24 12:04:41;;;;;;;10.52;3.75;;;14.40;99.90;;;;;;4981532;28;20076;-83
2023/05/24 12:07:11;;;;;;;8.15;2.97;;;14.10;99.90;;;;;;4976770;28;20527;-82
2023/05/24 12:09:37;;;;;;;10.25;3.72;;;14.00;99.90;;;;;;4979229;28;20439;-82
2023/05/24 12:12:03;;;;;;;12.98;3.33;;;14.10;99.90;;;;;;4993389;28;20160;-82
2023/05/24 12:14:32;;;;;;;11.95;3.35;;;13.90;99.90;;;;;;4972929;28;20141;-83
2023/05/24 12:16:58;;;;;;;15.43;4.07;;;14.00;99.90;;;;;;4975311;28;20065;-82
2023/05/24 12:19:28;;;;;;;7.63;3.60;;;14.40;99.90;;;;;;4956665;28;20106;-82
2023/05/24 12:21:58;;;;;;;7.93;3.05;;;14.30;99.90;;;;;;4961950;28;20026;-82
2023/05/24 12:24:25;;;;;;;10.48;3.50;;;14.00;57.70;;;;;;4975644;28;20437;-82
2023/05/24 12:26:52;;;;;;;10.57;3.20;;;14.10;99.90;;;;;;4974696;28;20061;-82
2023/05/24 12:29:21;;;;;;;11.15;3.15;;;14.20;99.90;;;;;;4976780;28;20057;-83
2023/05/24 12:31:47;;;;;;;10.38;3.88;;;14.30;99.90;;;;;;4970325;28;20346;-82
2023/05/24 12:34:16;;;;;;;8.75;3.40;;;14.30;99.90;;;;;;4986440;28;20065;-83
2023/05/24 12:36:42;;;;;;;7.70;2.90;;;14.20;99.90;;;;;;4975395;28;20051;-83
2023/05/24 12:39:18;;;;;;;6.05;2.85;;;14.30;99.90;;;;;;4979947;28;20045;-83
2023/05/24 12:41:44;;;;;;;11.20;3.88;;;14.50;99.90;;;;;;4957957;28;20031;-83
2023/05/24 12:44:13;;;;;;;14.20;3.65;;;14.80;80.50;;;;;;4975547;28;20145;-83
2023/05/24 12:46:38;;;;;;;8.65;3.60;;;14.70;99.90;;;;;;4958908;28;20448;-83
2023/05/24 12:49:04;;;;;;;11.35;3.35;;;14.80;99.90;;;;;;4962770;28;20130;-83